LIME Airport Information

Runway Information
Runway 10 Length 9636 ft width 148 ft Elevation 779 ft Threshold 312 ft Heading 105
Runway 28 Length 9636 ft Width 148 ft Elevation 754 ft Threshold 427 ft Heading 285
Runway 12 Length 2552 ft width 59 ft Elevation 782 ft Threshold 210 ft Heading 121
Runway 30 Length 2552 ft Width 59 ft Elevation 782 ft Threshold 328 ft Heading 301
Airport Frequencies
Type APP Name MILANO APP Frequency 126.75 MHZ
Type ATIS Name ATIS Frequency 112.6 MHZ
Type GND Name ORIO GND Frequency 120.5 MHZ
Type TWR Name ORIO TWR Frequency 126.5 MHZ
Airport Navaids
Type VOR-DME Name BERGAMO Frequency 11495 KHZ
Type NDB Name Orio Al Serio Frequency 377 KHZ
Airport Weather Information & NOTAM
ADDS - METARS form results

(0301 UTC 12 August 2022)
Data provider http://aviationweather.gov/metar/data/
 
METAR text: LIME 120250Z 36003KT 320V020 9999 SCT080 21/13 Q1016 NOSIG
Conditions at: LIME (BERGAMO/ORIO SER, IT) observed 0250 UTC 12 August 2022
Temperature: 21.0°C (70°F)
Dewpoint: 13.0°C (55°F) [RH = 60%]
Pressure (altimeter): 30.00 inches Hg (1016.0 mb)
Winds: from the N (360 degrees) at 3 MPH (3 knots; 1.5 m/s)
Visibility: 6 or more miles (10+ km)
Ceiling: at least 12,000 feet AGL
Clouds: scattered clouds at 8000 feet AGL
Weather: no significant weather observed at this time

METAR text: LIME 120220Z VRB02KT 9999 SCT080 22/12 Q1016 NOSIG
Conditions at: LIME (BERGAMO/ORIO SER, IT) observed 0220 UTC 12 August 2022
Temperature: 22.0°C (72°F)
Dewpoint: 12.0°C (54°F) [RH = 53%]
Pressure (altimeter): 30.00 inches Hg (1016.0 mb)
Winds: variable direction winds at 2 MPH (2 knots; 1.0 m/s)
Visibility: 6 or more miles (10+ km)
Ceiling: at least 12,000 feet AGL
Clouds: scattered clouds at 8000 feet AGL
Weather: no significant weather observed at this time

Forecast for: LIME (BERGAMO/ORIO SER, IT)
Text: TAF LIME 112300Z 1200/1224 VRB05KT 9999 SCT070
Forecast period: 0000 to 0700 UTC 12 August 2022
Forecast type: FROM: standard forecast or significant change
Winds: variable direction winds at 6 MPH (5 knots; 2.6 m/s)
Visibility: 6 or more miles (10+ km)
Ceiling: at least 12,000 feet AGL
Clouds: scattered clouds at 7000 feet AGL
Weather: no significant weather forecast for this period
Text: BECMG 1207/1209 12010KT
Forecast period: 0700 UTC 12 August 2022 to 0000 UTC 13 August 2022
Forecast type: BECOMING: Conditions expected to become as follows by 0900 UTC 12 August 2022
Winds: from the ESE (120 degrees) at 12 MPH (10 knots; 5.1 m/s)
Visibility: 6 or more miles (10+ km)
Ceiling: at least 12,000 feet AGL
Clouds: scattered clouds at 7000 feet AGL
Weather: no significant weather forecast for this period
Text: TEMPO 1217/1224 4000 TSRA
Forecast period: 1700 UTC 12 August 2022 to 0000 UTC 13 August 2022
Forecast type: TEMPORARY: The following changes expected for less than half the time period
Visibility: 2.49 miles (4.01 km)
Ceiling: unknown
Clouds: missing
Weather: TSRA  (rain associated with thunderstorm(s))